sensor_id;sensor_type;location;lat;lon;timestamp;temperature;humidity
30385;DHT22;17181;51.002;4.096;2022-12-11T15:48:12;3.80;99.90
30385;DHT22;17181;51.002;4.096;2022-12-11T15:50:38;3.80;99.90
30385;DHT22;17181;51.002;4.096;2022-12-11T15:53:04;3.80;99.90
30385;DHT22;17181;51.002;4.096;2022-12-11T15:55:31;3.80;99.90
30385;DHT22;17181;51.002;4.096;2022-12-11T15:58:05;3.80;99.90
30385;DHT22;17181;51.002;4.096;2022-12-11T16:00:32;3.80;99.90
30385;DHT22;17181;51.002;4.096;2022-12-11T16:02:58;3.80;99.90
30385;DHT22;17181;51.002;4.096;2022-12-11T16:05:25;3.80;99.90
30385;DHT22;17181;51.002;4.096;2022-12-11T16:07:51;3.80;99.90
30385;DHT22;17181;51.002;4.096;2022-12-11T16:10:20;3.80;99.90
30385;DHT22;17181;51.002;4.096;2022-12-11T16:12:55;3.80;99.90
30385;DHT22;17181;51.002;4.096;2022-12-11T16:15:27;3.80;99.90
30385;DHT22;17181;51.002;4.096;2022-12-11T16:18:09;3.90;99.90
30385;DHT22;17181;51.002;4.096;2022-12-11T16:20:38;3.80;99.90
30385;DHT22;17181;51.002;4.096;2022-12-11T16:23:04;3.90;99.90
30385;DHT22;17181;51.002;4.096;2022-12-11T16:25:30;3.90;99.90
30385;DHT22;17181;51.002;4.096;2022-12-11T16:27:58;3.90;99.90
30385;DHT22;17181;51.002;4.096;2022-12-11T16:30:25;3.90;99.90
30385;DHT22;17181;51.002;4.096;2022-12-11T16:32:51;4.00;99.90
30385;DHT22;17181;51.002;4.096;2022-12-11T16:35:19;4.00;99.90
30385;DHT22;17181;51.002;4.096;2022-12-11T16:37:48;4.00;99.90
30385;DHT22;17181;51.002;4.096;2022-12-11T16:40:14;4.00;99.90
30385;DHT22;17181;51.002;4.096;2022-12-11T16:42:40;3.90;99.90
30385;DHT22;17181;51.002;4.096;2022-12-11T16:45:09;3.90;99.90
30385;DHT22;17181;51.002;4.096;2022-12-11T16:47:36;3.90;99.90
30385;DHT22;17181;51.002;4.096;2022-12-11T16:50:02;3.80;99.90
30385;DHT22;17181;51.002;4.096;2022-12-11T16:52:30;3.80;99.90
30385;DHT22;17181;51.002;4.096;2022-12-11T16:54:56;3.70;99.90
30385;DHT22;17181;51.002;4.096;2022-12-11T16:57:22;3.70;99.90
30385;DHT22;17181;51.002;4.096;2022-12-11T16:59:48;3.70;99.90
30385;DHT22;17181;51.002;4.096;2022-12-11T17:02:13;3.60;99.90
30385;DHT22;17181;51.002;4.096;2022-12-11T17:04:39;3.60;99.90
30385;DHT22;17181;51.002;4.096;2022-12-11T17:07:06;3.60;99.90
30385;DHT22;17181;51.002;4.096;2022-12-11T17:09:33;3.60;99.90
30385;DHT22;17181;51.002;4.096;2022-12-11T17:12:00;3.60;99.90
30385;DHT22;17181;51.002;4.096;2022-12-11T17:14:26;3.60;99.90
30385;DHT22;17181;51.002;4.096;2022-12-11T17:16:52;3.70;99.90
30385;DHT22;17181;51.002;4.096;2022-12-11T17:19:18;3.70;99.90
30385;DHT22;17181;51.002;4.096;2022-12-11T17:21:44;3.70;99.90
30385;DHT22;17181;51.002;4.096;2022-12-11T17:24:16;3.70;99.90
30385;DHT22;17181;51.002;4.096;2022-12-11T17:26:42;3.70;99.90
30385;DHT22;17181;51.002;4.096;2022-12-11T17:29:12;3.80;99.90
30385;DHT22;17181;51.002;4.096;2022-12-11T17:31:38;3.80;99.90
30385;DHT22;17181;51.002;4.096;2022-12-11T17:34:04;3.70;99.90
30385;DHT22;17181;51.002;4.096;2022-12-11T17:36:31;3.80;99.90
30385;DHT22;17181;51.002;4.096;2022-12-11T17:38:57;3.70;99.90
30385;DHT22;17181;51.002;4.096;2022-12-11T17:41:22;3.70;99.90
30385;DHT22;17181;51.002;4.096;2022-12-11T17:43:50;3.70;99.90
30385;DHT22;17181;51.002;4.096;2022-12-11T17:46:17;3.70;99.90
30385;DHT22;17181;51.002;4.096;2022-12-11T17:48:43;3.70;99.90
30385;DHT22;17181;51.002;4.096;2022-12-11T17:51:12;3.60;99.90
30385;DHT22;17181;51.002;4.096;2022-12-11T17:53:38;3.60;99.90
30385;DHT22;17181;51.002;4.096;2022-12-11T17:56:06;3.60;99.90
30385;DHT22;17181;51.002;4.096;2022-12-11T17:58:33;3.60;99.90
30385;DHT22;17181;51.002;4.096;2022-12-11T18:00:59;3.60;99.90
30385;DHT22;17181;51.002;4.096;2022-12-11T18:03:26;3.60;99.90
30385;DHT22;17181;51.002;4.096;2022-12-11T18:05:54;3.60;99.90
30385;DHT22;17181;51.002;4.096;2022-12-11T18:08:23;3.50;99.90
30385;DHT22;17181;51.002;4.096;2022-12-11T18:10:54;3.50;99.90
30385;DHT22;17181;51.002;4.096;2022-12-11T18:13:20;3.60;99.90
30385;DHT22;17181;51.002;4.096;2022-12-11T18:15:46;3.50;99.90
30385;DHT22;17181;51.002;4.096;2022-12-11T18:18:13;3.60;99.90
30385;DHT22;17181;51.002;4.096;2022-12-11T18:20:39;3.60;99.90
30385;DHT22;17181;51.002;4.096;2022-12-11T18:23:05;3.50;99.90
30385;DHT22;17181;51.002;4.096;2022-12-11T18:25:31;3.50;99.90
30385;DHT22;17181;51.002;4.096;2022-12-11T18:27:57;3.40;99.90
30385;DHT22;17181;51.002;4.096;2022-12-11T18:30:25;3.40;99.90
30385;DHT22;17181;51.002;4.096;2022-12-11T18:32:52;3.40;99.90
30385;DHT22;17181;51.002;4.096;2022-12-11T18:35:18;3.40;99.90
30385;DHT22;17181;51.002;4.096;2022-12-11T18:37:43;3.40;99.90
30385;DHT22;17181;51.002;4.096;2022-12-11T18:40:10;3.40;99.90
30385;DHT22;17181;51.002;4.096;2022-12-11T18:42:39;3.40;99.90
30385;DHT22;17181;51.002;4.096;2022-12-11T18:45:05;3.30;99.90
30385;DHT22;17181;51.002;4.096;2022-12-11T18:47:31;3.30;99.90
30385;DHT22;17181;51.002;4.096;2022-12-11T18:49:57;3.30;99.90
30385;DHT22;17181;51.002;4.096;2022-12-11T18:52:23;3.30;99.90
30385;DHT22;17181;51.002;4.096;2022-12-11T18:54:49;3.20;99.90
30385;DHT22;17181;51.002;4.096;2022-12-11T18:57:16;3.20;99.90
30385;DHT22;17181;51.002;4.096;2022-12-11T18:59:42;3.30;99.90
30385;DHT22;17181;51.002;4.096;2022-12-11T19:02:10;3.20;99.90
30385;DHT22;17181;51.002;4.096;2022-12-11T19:04:36;3.20;99.90
30385;DHT22;17181;51.002;4.096;2022-12-11T19:07:02;3.10;99.90
30385;DHT22;17181;51.002;4.096;2022-12-11T19:09:28;3.10;99.90
30385;DHT22;17181;51.002;4.096;2022-12-11T19:11:54;3.10;99.90
30385;DHT22;17181;51.002;4.096;2022-12-11T19:14:20;3.10;99.90
30385;DHT22;17181;51.002;4.096;2022-12-11T19:16:46;3.10;99.90
30385;DHT22;17181;51.002;4.096;2022-12-11T19:19:18;3.10;99.90
30385;DHT22;17181;51.002;4.096;2022-12-11T19:21:44;3.10;99.90
30385;DHT22;17181;51.002;4.096;2022-12-11T19:24:18;3.10;99.90
30385;DHT22;17181;51.002;4.096;2022-12-11T19:26:44;3.00;99.90
30385;DHT22;17181;51.002;4.096;2022-12-11T19:29:21;3.00;99.90
30385;DHT22;17181;51.002;4.096;2022-12-11T19:31:47;2.90;99.90
30385;DHT22;17181;51.002;4.096;2022-12-11T19:34:13;2.90;99.90
30385;DHT22;17181;51.002;4.096;2022-12-11T19:36:39;2.90;99.90
30385;DHT22;17181;51.002;4.096;2022-12-11T19:39:05;2.90;99.90
30385;DHT22;17181;51.002;4.096;2022-12-11T19:41:31;2.80;99.90
30385;DHT22;17181;51.002;4.096;2022-12-11T19:43:58;2.80;99.90
30385;DHT22;17181;51.002;4.096;2022-12-11T19:46:25;2.70;99.90
30385;DHT22;17181;51.002;4.096;2022-12-11T19:48:53;2.70;99.90
30385;DHT22;17181;51.002;4.096;2022-12-11T19:51:22;2.70;99.90
30385;DHT22;17181;51.002;4.096;2022-12-11T19:53:48;2.70;99.90
30385;DHT22;17181;51.002;4.096;2022-12-11T19:56:16;2.70;99.90
30385;DHT22;17181;51.002;4.096;2022-12-11T19:58:42;2.70;99.90
30385;DHT22;17181;51.002;4.096;2022-12-11T20:01:08;2.80;99.90
30385;DHT22;17181;51.002;4.096;2022-12-11T20:03:34;2.70;99.90
30385;DHT22;17181;51.002;4.096;2022-12-11T20:06:06;2.70;99.90
30385;DHT22;17181;51.002;4.096;2022-12-11T20:08:33;2.70;99.90
30385;DHT22;17181;51.002;4.096;2022-12-11T20:11:06;2.60;99.90
30385;DHT22;17181;51.002;4.096;2022-12-11T20:13:36;2.60;99.90
30385;DHT22;17181;51.002;4.096;2022-12-11T20:16:09;2.60;99.90
30385;DHT22;17181;51.002;4.096;2022-12-11T20:18:36;2.60;99.90
30385;DHT22;17181;51.002;4.096;2022-12-11T20:21:04;2.50;99.90
30385;DHT22;17181;51.002;4.096;2022-12-11T20:23:30;2.50;99.90
30385;DHT22;17181;51.002;4.096;2022-12-11T20:25:56;2.50;99.90
30385;DHT22;17181;51.002;4.096;2022-12-11T20:28:22;2.50;99.90
30385;DHT22;17181;51.002;4.096;2022-12-11T20:30:48;2.50;99.90
30385;DHT22;17181;51.002;4.096;2022-12-11T20:33:17;2.50;99.90
30385;DHT22;17181;51.002;4.096;2022-12-11T20:35:43;2.40;99.90
30385;DHT22;17181;51.002;4.096;2022-12-11T20:38:09;2.40;99.90
30385;DHT22;17181;51.002;4.096;2022-12-11T20:40:35;2.40;99.90
30385;DHT22;17181;51.002;4.096;2022-12-11T20:43:01;2.40;99.90
30385;DHT22;17181;51.002;4.096;2022-12-11T20:45:27;2.40;99.90
30385;DHT22;17181;51.002;4.096;2022-12-11T20:47:53;2.40;99.90
30385;DHT22;17181;51.002;4.096;2022-12-11T20:50:18;2.30;99.90
30385;DHT22;17181;51.002;4.096;2022-12-11T20:52:44;2.40;99.90
30385;DHT22;17181;51.002;4.096;2022-12-11T20:55:10;2.30;99.90
30385;DHT22;17181;51.002;4.096;2022-12-11T20:57:36;2.30;99.90
30385;DHT22;17181;51.002;4.096;2022-12-11T21:00:04;2.30;99.90
30385;DHT22;17181;51.002;4.096;2022-12-11T21:02:30;2.30;99.90
30385;DHT22;17181;51.002;4.096;2022-12-11T21:04:56;2.30;99.90
30385;DHT22;17181;51.002;4.096;2022-12-11T21:07:22;2.20;99.90
30385;DHT22;17181;51.002;4.096;2022-12-11T21:09:48;2.20;99.90
30385;DHT22;17181;51.002;4.096;2022-12-11T21:12:14;2.30;99.90
30385;DHT22;17181;51.002;4.096;2022-12-11T21:14:40;2.20;99.90
30385;DHT22;17181;51.002;4.096;2022-12-11T21:17:07;2.20;99.90
30385;DHT22;17181;51.002;4.096;2022-12-11T21:19:32;2.20;99.90
30385;DHT22;17181;51.002;4.096;2022-12-11T21:21:58;2.10;99.90
30385;DHT22;17181;51.002;4.096;2022-12-11T21:24:26;2.20;99.90
30385;DHT22;17181;51.002;4.096;2022-12-11T21:26:54;2.20;99.90
30385;DHT22;17181;51.002;4.096;2022-12-11T21:29:21;2.20;99.90
30385;DHT22;17181;51.002;4.096;2022-12-11T21:31:48;2.20;99.90
30385;DHT22;17181;51.002;4.096;2022-12-11T21:34:14;2.20;99.90
30385;DHT22;17181;51.002;4.096;2022-12-11T21:36:40;2.20;99.90
30385;DHT22;17181;51.002;4.096;2022-12-11T21:39:06;2.10;99.90
30385;DHT22;17181;51.002;4.096;2022-12-11T21:41:32;2.10;99.90
30385;DHT22;17181;51.002;4.096;2022-12-11T21:43:58;2.20;99.90
30385;DHT22;17181;51.002;4.096;2022-12-11T21:46:26;2.10;99.90
30385;DHT22;17181;51.002;4.096;2022-12-11T21:48:53;2.10;99.90
30385;DHT22;17181;51.002;4.096;2022-12-11T21:51:25;2.10;99.90
30385;DHT22;17181;51.002;4.096;2022-12-11T21:53:51;2.00;99.90
30385;DHT22;17181;51.002;4.096;2022-12-11T21:56:21;2.10;99.90
30385;DHT22;17181;51.002;4.096;2022-12-11T21:58:49;2.00;99.90
30385;DHT22;17181;51.002;4.096;2022-12-11T22:01:21;1.90;99.90
30385;DHT22;17181;51.002;4.096;2022-12-11T22:03:48;1.80;99.90
30385;DHT22;17181;51.002;4.096;2022-12-11T22:06:15;1.90;99.90
30385;DHT22;17181;51.002;4.096;2022-12-11T22:08:41;1.80;99.90
30385;DHT22;17181;51.002;4.096;2022-12-11T22:11:07;1.70;99.90
30385;DHT22;17181;51.002;4.096;2022-12-11T22:13:34;1.70;99.90
30385;DHT22;17181;51.002;4.096;2022-12-11T22:16:00;1.70;99.90
30385;DHT22;17181;51.002;4.096;2022-12-11T22:18:26;1.70;99.90
30385;DHT22;17181;51.002;4.096;2022-12-11T22:20:53;1.60;99.90
30385;DHT22;17181;51.002;4.096;2022-12-11T22:23:20;1.60;99.90
30385;DHT22;17181;51.002;4.096;2022-12-11T22:25:47;1.50;99.90
30385;DHT22;17181;51.002;4.096;2022-12-11T22:28:14;1.50;99.90
30385;DHT22;17181;51.002;4.096;2022-12-11T22:30:41;1.40;99.90
30385;DHT22;17181;51.002;4.096;2022-12-11T22:33:07;1.40;99.90
30385;DHT22;17181;51.002;4.096;2022-12-11T22:35:33;1.40;99.90
30385;DHT22;17181;51.002;4.096;2022-12-11T22:38:00;1.40;99.90
30385;DHT22;17181;51.002;4.096;2022-12-11T22:40:27;1.30;99.90
30385;DHT22;17181;51.002;4.096;2022-12-11T22:42:53;1.40;99.90
30385;DHT22;17181;51.002;4.096;2022-12-11T22:45:21;1.30;99.90
30385;DHT22;17181;51.002;4.096;2022-12-11T22:47:47;1.40;99.90
30385;DHT22;17181;51.002;4.096;2022-12-11T22:50:14;1.40;99.90
30385;DHT22;17181;51.002;4.096;2022-12-11T22:52:40;1.40;99.90
30385;DHT22;17181;51.002;4.096;2022-12-11T22:55:06;1.40;99.90
30385;DHT22;17181;51.002;4.096;2022-12-11T22:57:35;1.30;99.90
30385;DHT22;17181;51.002;4.096;2022-12-11T23:00:03;1.30;99.90
30385;DHT22;17181;51.002;4.096;2022-12-11T23:02:30;1.30;99.90
30385;DHT22;17181;51.002;4.096;2022-12-11T23:04:56;1.20;99.90
30385;DHT22;17181;51.002;4.096;2022-12-11T23:07:22;1.30;99.90
30385;DHT22;17181;51.002;4.096;2022-12-11T23:09:48;1.30;99.90
30385;DHT22;17181;51.002;4.096;2022-12-11T23:12:14;1.20;99.90
30385;DHT22;17181;51.002;4.096;2022-12-11T23:14:39;1.20;99.90
30385;DHT22;17181;51.002;4.096;2022-12-11T23:17:05;1.20;99.90
30385;DHT22;17181;51.002;4.096;2022-12-11T23:19:31;1.20;99.90
30385;DHT22;17181;51.002;4.096;2022-12-11T23:21:57;1.20;99.90
30385;DHT22;17181;51.002;4.096;2022-12-11T23:24:22;1.10;99.90
30385;DHT22;17181;51.002;4.096;2022-12-11T23:26:48;1.10;99.90
30385;DHT22;17181;51.002;4.096;2022-12-11T23:29:14;1.10;99.90
30385;DHT22;17181;51.002;4.096;2022-12-11T23:31:40;1.00;99.90
30385;DHT22;17181;51.002;4.096;2022-12-11T23:34:05;1.00;99.90
30385;DHT22;17181;51.002;4.096;2022-12-11T23:36:32;1.00;99.90
30385;DHT22;17181;51.002;4.096;2022-12-11T23:38:57;1.00;99.90
30385;DHT22;17181;51.002;4.096;2022-12-11T23:41:23;1.00;99.90
30385;DHT22;17181;51.002;4.096;2022-12-11T23:43:49;1.00;99.90
30385;DHT22;17181;51.002;4.096;2022-12-11T23:46:20;0.90;99.90
30385;DHT22;17181;51.002;4.096;2022-12-11T23:48:46;0.90;99.90
30385;DHT22;17181;51.002;4.096;2022-12-11T23:51:14;0.90;99.90
30385;DHT22;17181;51.002;4.096;2022-12-11T23:53:41;1.00;99.90
30385;DHT22;17181;51.002;4.096;2022-12-11T23:56:15;1.00;99.90
30385;DHT22;17181;51.002;4.096;2022-12-11T23:58:41;0.90;99.90
